sensor_id;sensor_type;location;lat;lon;timestamp;P1;durP1;ratioP1;P2;durP2;ratioP2
57025;SDS011;43961;52.940;6.834;2022-10-28T00:02:17;31.30;;;18.88;;
57025;SDS011;43961;52.940;6.834;2022-10-28T00:04:42;25.30;;;17.67;;
57025;SDS011;43961;52.940;6.834;2022-10-28T00:07:08;30.33;;;17.80;;
57025;SDS011;43961;52.940;6.834;2022-10-28T00:09:35;38.58;;;19.73;;
57025;SDS011;43961;52.940;6.834;2022-10-28T00:12:00;35.55;;;19.85;;
57025;SDS011;43961;52.940;6.834;2022-10-28T00:14:26;35.95;;;21.08;;
57025;SDS011;43961;52.940;6.834;2022-10-28T00:16:51;42.53;;;20.90;;
57025;SDS011;43961;52.940;6.834;2022-10-28T00:19:17;29.45;;;19.13;;
57025;SDS011;43961;52.940;6.834;2022-10-28T00:21:43;27.13;;;17.65;;
57025;SDS011;43961;52.940;6.834;2022-10-28T00:24:10;30.55;;;18.77;;
57025;SDS011;43961;52.940;6.834;2022-10-28T00:26:38;34.22;;;20.40;;
57025;SDS011;43961;52.940;6.834;2022-10-28T00:29:10;32.63;;;20.98;;
57025;SDS011;43961;52.940;6.834;2022-10-28T00:31:38;29.73;;;20.40;;
57025;SDS011;43961;52.940;6.834;2022-10-28T00:34:06;31.83;;;21.77;;
57025;SDS011;43961;52.940;6.834;2022-10-28T00:36:35;42.85;;;20.40;;
57025;SDS011;43961;52.940;6.834;2022-10-28T00:39:02;34.53;;;20.63;;
57025;SDS011;43961;52.940;6.834;2022-10-28T00:41:34;30.77;;;19.83;;
57025;SDS011;43961;52.940;6.834;2022-10-28T00:47:26;35.97;;;20.83;;
57025;SDS011;43961;52.940;6.834;2022-10-28T00:50:14;44.67;;;23.35;;
57025;SDS011;43961;52.940;6.834;2022-10-28T00:52:40;36.13;;;20.73;;
57025;SDS011;43961;52.940;6.834;2022-10-28T00:55:10;29.85;;;19.08;;
57025;SDS011;43961;52.940;6.834;2022-10-28T00:57:37;27.10;;;19.50;;
57025;SDS011;43961;52.940;6.834;2022-10-28T01:00:05;41.47;;;21.58;;
57025;SDS011;43961;52.940;6.834;2022-10-28T01:02:32;38.30;;;22.23;;
57025;SDS011;43961;52.940;6.834;2022-10-28T01:05:03;45.38;;;22.15;;
57025;SDS011;43961;52.940;6.834;2022-10-28T01:07:29;42.45;;;25.02;;
57025;SDS011;43961;52.940;6.834;2022-10-28T01:09:54;46.95;;;24.17;;
57025;SDS011;43961;52.940;6.834;2022-10-28T01:15:18;39.17;;;25.98;;
57025;SDS011;43961;52.940;6.834;2022-10-28T01:26:35;40.00;;;24.15;;
57025;SDS011;43961;52.940;6.834;2022-10-28T01:32:12;40.05;;;25.30;;
57025;SDS011;43961;52.940;6.834;2022-10-28T01:37:38;38.83;;;23.70;;
57025;SDS011;43961;52.940;6.834;2022-10-28T01:40:22;42.00;;;25.67;;
57025;SDS011;43961;52.940;6.834;2022-10-28T01:42:58;37.40;;;24.17;;
57025;SDS011;43961;52.940;6.834;2022-10-28T01:45:36;42.00;;;25.40;;
57025;SDS011;43961;52.940;6.834;2022-10-28T01:48:13;47.78;;;25.15;;
57025;SDS011;43961;52.940;6.834;2022-10-28T01:50:45;38.28;;;23.63;;
57025;SDS011;43961;52.940;6.834;2022-10-28T01:53:22;43.70;;;25.40;;
57025;SDS011;43961;52.940;6.834;2022-10-28T01:55:51;40.50;;;24.15;;
57025;SDS011;43961;52.940;6.834;2022-10-28T02:00:47;39.47;;;24.85;;
57025;SDS011;43961;52.940;6.834;2022-10-28T02:03:15;55.05;;;26.05;;
57025;SDS011;43961;52.940;6.834;2022-10-28T02:11:24;44.88;;;24.05;;
57025;SDS011;43961;52.940;6.834;2022-10-28T02:14:20;38.25;;;23.90;;
57025;SDS011;43961;52.940;6.834;2022-10-28T02:22:53;38.63;;;21.77;;
57025;SDS011;43961;52.940;6.834;2022-10-28T02:25:34;36.42;;;22.45;;
57025;SDS011;43961;52.940;6.834;2022-10-28T02:28:05;46.80;;;24.77;;
57025;SDS011;43961;52.940;6.834;2022-10-28T02:33:09;34.00;;;20.42;;
57025;SDS011;43961;52.940;6.834;2022-10-28T02:35:50;38.17;;;20.77;;
57025;SDS011;43961;52.940;6.834;2022-10-28T02:38:24;46.60;;;23.23;;
57025;SDS011;43961;52.940;6.834;2022-10-28T02:41:09;47.03;;;24.80;;
57025;SDS011;43961;52.940;6.834;2022-10-28T02:43:42;41.50;;;22.88;;
57025;SDS011;43961;52.940;6.834;2022-10-28T02:46:10;38.40;;;24.10;;
57025;SDS011;43961;52.940;6.834;2022-10-28T02:48:39;37.72;;;21.38;;
57025;SDS011;43961;52.940;6.834;2022-10-28T02:51:18;38.10;;;22.75;;
57025;SDS011;43961;52.940;6.834;2022-10-28T02:56:48;36.75;;;22.42;;
57025;SDS011;43961;52.940;6.834;2022-10-28T02:59:18;41.40;;;25.13;;
57025;SDS011;43961;52.940;6.834;2022-10-28T03:01:44;38.55;;;25.88;;
57025;SDS011;43961;52.940;6.834;2022-10-28T03:04:09;33.40;;;23.85;;
57025;SDS011;43961;52.940;6.834;2022-10-28T03:06:35;40.35;;;24.77;;
57025;SDS011;43961;52.940;6.834;2022-10-28T03:09:00;37.22;;;24.38;;
57025;SDS011;43961;52.940;6.834;2022-10-28T03:11:26;44.17;;;24.38;;
57025;SDS011;43961;52.940;6.834;2022-10-28T03:13:52;47.17;;;25.73;;
57025;SDS011;43961;52.940;6.834;2022-10-28T03:16:17;36.00;;;21.95;;
57025;SDS011;43961;52.940;6.834;2022-10-28T03:18:43;35.60;;;23.63;;
57025;SDS011;43961;52.940;6.834;2022-10-28T03:21:09;48.20;;;26.60;;
57025;SDS011;43961;52.940;6.834;2022-10-28T03:23:34;43.65;;;25.45;;
57025;SDS011;43961;52.940;6.834;2022-10-28T03:26:00;39.00;;;24.30;;
57025;SDS011;43961;52.940;6.834;2022-10-28T03:28:25;38.60;;;25.00;;
57025;SDS011;43961;52.940;6.834;2022-10-28T03:30:51;41.97;;;24.83;;
57025;SDS011;43961;52.940;6.834;2022-10-28T03:33:17;55.15;;;25.80;;
57025;SDS011;43961;52.940;6.834;2022-10-28T03:35:43;49.75;;;25.52;;
57025;SDS011;43961;52.940;6.834;2022-10-28T03:38:08;41.40;;;23.65;;
57025;SDS011;43961;52.940;6.834;2022-10-28T03:40:34;37.75;;;24.48;;
57025;SDS011;43961;52.940;6.834;2022-10-28T03:43:00;42.05;;;24.38;;
57025;SDS011;43961;52.940;6.834;2022-10-28T03:45:25;36.25;;;22.40;;
57025;SDS011;43961;52.940;6.834;2022-10-28T03:47:51;33.78;;;22.80;;
57025;SDS011;43961;52.940;6.834;2022-10-28T03:50:17;29.42;;;20.15;;
57025;SDS011;43961;52.940;6.834;2022-10-28T03:52:42;45.45;;;25.00;;
57025;SDS011;43961;52.940;6.834;2022-10-28T03:55:08;30.92;;;21.02;;
57025;SDS011;43961;52.940;6.834;2022-10-28T03:57:34;35.38;;;21.92;;
57025;SDS011;43961;52.940;6.834;2022-10-28T04:00:00;27.63;;;21.17;;
57025;SDS011;43961;52.940;6.834;2022-10-28T04:02:26;37.22;;;23.45;;
57025;SDS011;43961;52.940;6.834;2022-10-28T04:04:52;37.50;;;23.50;;
57025;SDS011;43961;52.940;6.834;2022-10-28T04:07:17;37.00;;;24.88;;
57025;SDS011;43961;52.940;6.834;2022-10-28T04:09:43;33.83;;;24.60;;
57025;SDS011;43961;52.940;6.834;2022-10-28T04:12:09;32.63;;;22.85;;
57025;SDS011;43961;52.940;6.834;2022-10-28T04:14:35;44.08;;;24.52;;
57025;SDS011;43961;52.940;6.834;2022-10-28T04:17:01;32.25;;;22.90;;
57025;SDS011;43961;52.940;6.834;2022-10-28T04:19:26;30.00;;;22.40;;
57025;SDS011;43961;52.940;6.834;2022-10-28T04:21:52;27.10;;;21.52;;
57025;SDS011;43961;52.940;6.834;2022-10-28T04:24:18;29.38;;;21.63;;
57025;SDS011;43961;52.940;6.834;2022-10-28T04:26:44;32.72;;;21.55;;
57025;SDS011;43961;52.940;6.834;2022-10-28T04:29:10;33.13;;;22.90;;
57025;SDS011;43961;52.940;6.834;2022-10-28T04:31:35;45.83;;;25.23;;
57025;SDS011;43961;52.940;6.834;2022-10-28T04:34:01;52.80;;;26.02;;
57025;SDS011;43961;52.940;6.834;2022-10-28T04:36:26;33.08;;;24.30;;
57025;SDS011;43961;52.940;6.834;2022-10-28T04:38:52;47.13;;;27.58;;
57025;SDS011;43961;52.940;6.834;2022-10-28T04:41:18;43.20;;;24.48;;
57025;SDS011;43961;52.940;6.834;2022-10-28T04:43:43;41.97;;;28.25;;
57025;SDS011;43961;52.940;6.834;2022-10-28T04:46:09;47.05;;;29.27;;
57025;SDS011;43961;52.940;6.834;2022-10-28T04:48:35;40.42;;;25.33;;
57025;SDS011;43961;52.940;6.834;2022-10-28T04:51:01;42.63;;;27.55;;
57025;SDS011;43961;52.940;6.834;2022-10-28T04:53:27;43.17;;;29.30;;
57025;SDS011;43961;52.940;6.834;2022-10-28T04:55:57;49.60;;;30.30;;
57025;SDS011;43961;52.940;6.834;2022-10-28T04:58:24;41.15;;;26.13;;
57025;SDS011;43961;52.940;6.834;2022-10-28T05:00:50;48.00;;;28.52;;
57025;SDS011;43961;52.940;6.834;2022-10-28T05:03:16;56.55;;;31.10;;
57025;SDS011;43961;52.940;6.834;2022-10-28T05:05:42;56.58;;;30.92;;
57025;SDS011;43961;52.940;6.834;2022-10-28T05:08:07;55.05;;;29.85;;
57025;SDS011;43961;52.940;6.834;2022-10-28T05:10:33;44.90;;;27.25;;
57025;SDS011;43961;52.940;6.834;2022-10-28T05:12:59;52.60;;;29.52;;
57025;SDS011;43961;52.940;6.834;2022-10-28T05:15:24;48.53;;;29.02;;
57025;SDS011;43961;52.940;6.834;2022-10-28T05:17:50;52.78;;;28.92;;
57025;SDS011;43961;52.940;6.834;2022-10-28T05:20:17;46.95;;;28.38;;
57025;SDS011;43961;52.940;6.834;2022-10-28T05:22:51;51.60;;;30.35;;
57025;SDS011;43961;52.940;6.834;2022-10-28T05:25:18;47.42;;;30.58;;
57025;SDS011;43961;52.940;6.834;2022-10-28T05:27:46;54.90;;;31.02;;
57025;SDS011;43961;52.940;6.834;2022-10-28T05:30:12;50.92;;;29.27;;
57025;SDS011;43961;52.940;6.834;2022-10-28T05:32:38;50.03;;;28.40;;
57025;SDS011;43961;52.940;6.834;2022-10-28T05:35:04;46.05;;;27.42;;
57025;SDS011;43961;52.940;6.834;2022-10-28T05:37:30;45.80;;;26.85;;
57025;SDS011;43961;52.940;6.834;2022-10-28T05:39:56;48.45;;;28.45;;
57025;SDS011;43961;52.940;6.834;2022-10-28T05:42:21;59.67;;;31.02;;
57025;SDS011;43961;52.940;6.834;2022-10-28T05:44:47;37.78;;;25.20;;
57025;SDS011;43961;52.940;6.834;2022-10-28T05:47:13;41.65;;;25.48;;
57025;SDS011;43961;52.940;6.834;2022-10-28T05:49:38;43.50;;;27.70;;
57025;SDS011;43961;52.940;6.834;2022-10-28T05:52:04;46.10;;;26.63;;
57025;SDS011;43961;52.940;6.834;2022-10-28T05:54:30;41.17;;;26.00;;
57025;SDS011;43961;52.940;6.834;2022-10-28T05:56:55;44.88;;;27.85;;
57025;SDS011;43961;52.940;6.834;2022-10-28T05:59:21;74.68;;;44.88;;
57025;SDS011;43961;52.940;6.834;2022-10-28T06:01:47;65.53;;;36.80;;
57025;SDS011;43961;52.940;6.834;2022-10-28T06:04:12;48.60;;;29.38;;
57025;SDS011;43961;52.940;6.834;2022-10-28T06:06:38;39.25;;;26.58;;
57025;SDS011;43961;52.940;6.834;2022-10-28T06:09:03;34.63;;;24.90;;
57025;SDS011;43961;52.940;6.834;2022-10-28T06:11:29;43.63;;;27.38;;
57025;SDS011;43961;52.940;6.834;2022-10-28T06:13:55;48.40;;;27.73;;
57025;SDS011;43961;52.940;6.834;2022-10-28T06:16:21;40.38;;;24.92;;
57025;SDS011;43961;52.940;6.834;2022-10-28T06:18:47;56.17;;;29.13;;
57025;SDS011;43961;52.940;6.834;2022-10-28T06:21:13;46.03;;;27.02;;
57025;SDS011;43961;52.940;6.834;2022-10-28T06:23:38;45.80;;;26.88;;
57025;SDS011;43961;52.940;6.834;2022-10-28T06:26:04;48.22;;;26.58;;
57025;SDS011;43961;52.940;6.834;2022-10-28T06:28:30;43.58;;;27.27;;
57025;SDS011;43961;52.940;6.834;2022-10-28T06:31:06;44.83;;;25.40;;
57025;SDS011;43961;52.940;6.834;2022-10-28T06:33:33;41.70;;;27.77;;
57025;SDS011;43961;52.940;6.834;2022-10-28T06:35:59;54.08;;;28.30;;
57025;SDS011;43961;52.940;6.834;2022-10-28T06:38:25;53.42;;;27.92;;
57025;SDS011;43961;52.940;6.834;2022-10-28T06:40:52;37.92;;;25.92;;
57025;SDS011;43961;52.940;6.834;2022-10-28T06:43:17;48.53;;;26.55;;
57025;SDS011;43961;52.940;6.834;2022-10-28T06:45:43;39.95;;;27.45;;
57025;SDS011;43961;52.940;6.834;2022-10-28T06:48:10;42.97;;;26.98;;
57025;SDS011;43961;52.940;6.834;2022-10-28T06:50:36;44.10;;;26.00;;
57025;SDS011;43961;52.940;6.834;2022-10-28T06:53:02;45.60;;;27.27;;
57025;SDS011;43961;52.940;6.834;2022-10-28T06:55:28;50.08;;;30.70;;
57025;SDS011;43961;52.940;6.834;2022-10-28T06:57:57;39.97;;;26.45;;
57025;SDS011;43961;52.940;6.834;2022-10-28T07:00:24;32.30;;;22.02;;
57025;SDS011;43961;52.940;6.834;2022-10-28T07:02:53;49.90;;;26.05;;
57025;SDS011;43961;52.940;6.834;2022-10-28T07:05:19;50.08;;;28.08;;
57025;SDS011;43961;52.940;6.834;2022-10-28T07:07:46;42.88;;;26.65;;
57025;SDS011;43961;52.940;6.834;2022-10-28T07:10:12;47.80;;;28.58;;
57025;SDS011;43961;52.940;6.834;2022-10-28T07:12:37;55.83;;;29.92;;
57025;SDS011;43961;52.940;6.834;2022-10-28T07:15:03;40.88;;;27.38;;
57025;SDS011;43961;52.940;6.834;2022-10-28T07:17:29;60.00;;;27.98;;
57025;SDS011;43961;52.940;6.834;2022-10-28T07:19:55;42.90;;;27.75;;
57025;SDS011;43961;52.940;6.834;2022-10-28T07:22:21;52.85;;;28.35;;
57025;SDS011;43961;52.940;6.834;2022-10-28T07:24:46;41.40;;;25.70;;
57025;SDS011;43961;52.940;6.834;2022-10-28T07:27:15;56.10;;;30.48;;
57025;SDS011;43961;52.940;6.834;2022-10-28T07:29:41;62.53;;;28.92;;
57025;SDS011;43961;52.940;6.834;2022-10-28T07:32:06;64.75;;;31.20;;
57025;SDS011;43961;52.940;6.834;2022-10-28T07:34:32;50.75;;;27.60;;
57025;SDS011;43961;52.940;6.834;2022-10-28T07:36:57;52.25;;;27.88;;
57025;SDS011;43961;52.940;6.834;2022-10-28T07:39:23;60.80;;;27.52;;
57025;SDS011;43961;52.940;6.834;2022-10-28T07:41:49;55.22;;;29.25;;
57025;SDS011;43961;52.940;6.834;2022-10-28T07:44:18;51.92;;;28.00;;
57025;SDS011;43961;52.940;6.834;2022-10-28T07:46:43;62.22;;;28.00;;
57025;SDS011;43961;52.940;6.834;2022-10-28T07:49:09;46.40;;;25.67;;
57025;SDS011;43961;52.940;6.834;2022-10-28T07:51:34;59.63;;;25.80;;
57025;SDS011;43961;52.940;6.834;2022-10-28T07:54:00;48.38;;;24.17;;
57025;SDS011;43961;52.940;6.834;2022-10-28T07:56:26;59.88;;;25.42;;
57025;SDS011;43961;52.940;6.834;2022-10-28T07:58:51;41.50;;;22.25;;
57025;SDS011;43961;52.940;6.834;2022-10-28T08:01:18;47.63;;;23.67;;
57025;SDS011;43961;52.940;6.834;2022-10-28T08:03:44;42.37;;;21.87;;
57025;SDS011;43961;52.940;6.834;2022-10-28T08:06:12;41.95;;;23.05;;
57025;SDS011;43961;52.940;6.834;2022-10-28T08:08:41;47.58;;;22.13;;
57025;SDS011;43961;52.940;6.834;2022-10-28T08:11:08;44.20;;;21.67;;
57025;SDS011;43961;52.940;6.834;2022-10-28T08:13:35;33.33;;;21.23;;
57025;SDS011;43961;52.940;6.834;2022-10-28T08:16:02;36.00;;;20.27;;
57025;SDS011;43961;52.940;6.834;2022-10-28T08:18:27;53.97;;;19.90;;
57025;SDS011;43961;52.940;6.834;2022-10-28T08:20:53;33.80;;;21.08;;
57025;SDS011;43961;52.940;6.834;2022-10-28T08:23:18;33.72;;;20.02;;
57025;SDS011;43961;52.940;6.834;2022-10-28T08:25:51;34.65;;;16.33;;
57025;SDS011;43961;52.940;6.834;2022-10-28T08:28:17;35.80;;;18.08;;
57025;SDS011;43961;52.940;6.834;2022-10-28T08:30:43;39.15;;;18.08;;
57025;SDS011;43961;52.940;6.834;2022-10-28T08:33:10;43.95;;;19.38;;
57025;SDS011;43961;52.940;6.834;2022-10-28T08:35:36;30.08;;;18.92;;
57025;SDS011;43961;52.940;6.834;2022-10-28T08:38:03;36.70;;;16.70;;
57025;SDS011;43961;52.940;6.834;2022-10-28T08:41:11;25.58;;;15.57;;
57025;SDS011;43961;52.940;6.834;2022-10-28T08:48:47;36.95;;;17.90;;
57025;SDS011;43961;52.940;6.834;2022-10-28T08:51:20;33.75;;;17.58;;
57025;SDS011;43961;52.940;6.834;2022-10-28T08:54:12;27.17;;;17.25;;
57025;SDS011;43961;52.940;6.834;2022-10-28T08:56:43;38.25;;;16.40;;
57025;SDS011;43961;52.940;6.834;2022-10-28T08:59:12;30.00;;;15.05;;
57025;SDS011;43961;52.940;6.834;2022-10-28T09:04:42;28.38;;;15.40;;
57025;SDS011;43961;52.940;6.834;2022-10-28T09:07:14;33.72;;;16.48;;
57025;SDS011;43961;52.940;6.834;2022-10-28T09:09:43;34.80;;;16.80;;
57025;SDS011;43961;52.940;6.834;2022-10-28T09:12:11;28.63;;;15.82;;
57025;SDS011;43961;52.940;6.834;2022-10-28T09:14:56;36.65;;;16.42;;
57025;SDS011;43961;52.940;6.834;2022-10-28T09:17:41;34.25;;;16.85;;
57025;SDS011;43961;52.940;6.834;2022-10-28T09:20:18;35.55;;;16.80;;
57025;SDS011;43961;52.940;6.834;2022-10-28T09:31:12;49.78;;;15.70;;
57025;SDS011;43961;52.940;6.834;2022-10-28T09:33:50;28.55;;;15.43;;
57025;SDS011;43961;52.940;6.834;2022-10-28T09:36:20;26.77;;;14.27;;
57025;SDS011;43961;52.940;6.834;2022-10-28T09:38:50;26.00;;;14.98;;
57025;SDS011;43961;52.940;6.834;2022-10-28T09:41:24;35.78;;;15.35;;
57025;SDS011;43961;52.940;6.834;2022-10-28T09:46:36;30.55;;;14.43;;
57025;SDS011;43961;52.940;6.834;2022-10-28T09:49:05;43.22;;;17.23;;
57025;SDS011;43961;52.940;6.834;2022-10-28T09:54:34;31.95;;;15.15;;
57025;SDS011;43961;52.940;6.834;2022-10-28T09:57:05;37.35;;;15.77;;
57025;SDS011;43961;52.940;6.834;2022-10-28T09:59:31;25.65;;;14.20;;
57025;SDS011;43961;52.940;6.834;2022-10-28T10:01:58;24.38;;;14.52;;
57025;SDS011;43961;52.940;6.834;2022-10-28T10:04:24;51.53;;;15.70;;
57025;SDS011;43961;52.940;6.834;2022-10-28T10:07:23;23.48;;;14.10;;
57025;SDS011;43961;52.940;6.834;2022-10-28T10:09:42;34.03;;;15.60;;
57025;SDS011;43961;52.940;6.834;2022-10-28T10:12:09;32.08;;;14.32;;
57025;SDS011;43961;52.940;6.834;2022-10-28T10:14:44;34.47;;;14.48;;
57025;SDS011;43961;52.940;6.834;2022-10-28T10:17:24;30.33;;;14.17;;
57025;SDS011;43961;52.940;6.834;2022-10-28T10:22:42;37.33;;;17.27;;
57025;SDS011;43961;52.940;6.834;2022-10-28T10:27:41;27.88;;;14.02;;
57025;SDS011;43961;52.940;6.834;2022-10-28T10:30:12;44.38;;;15.90;;
57025;SDS011;43961;52.940;6.834;2022-10-28T10:32:45;27.83;;;15.05;;
57025;SDS011;43961;52.940;6.834;2022-10-28T10:37:40;35.20;;;14.48;;
57025;SDS011;43961;52.940;6.834;2022-10-28T10:42:37;30.27;;;15.60;;
57025;SDS011;43961;52.940;6.834;2022-10-28T10:45:36;28.77;;;14.20;;
57025;SDS011;43961;52.940;6.834;2022-10-28T10:50:51;27.27;;;14.25;;
57025;SDS011;43961;52.940;6.834;2022-10-28T10:58:36;30.48;;;14.43;;
57025;SDS011;43961;52.940;6.834;2022-10-28T11:01:10;28.27;;;14.10;;
57025;SDS011;43961;52.940;6.834;2022-10-28T11:06:20;32.58;;;15.10;;
57025;SDS011;43961;52.940;6.834;2022-10-28T11:09:00;37.08;;;15.63;;
57025;SDS011;43961;52.940;6.834;2022-10-28T11:11:32;30.92;;;14.90;;
57025;SDS011;43961;52.940;6.834;2022-10-28T11:14:01;38.15;;;15.38;;
57025;SDS011;43961;52.940;6.834;2022-10-28T11:16:45;23.23;;;12.15;;
57025;SDS011;43961;52.940;6.834;2022-10-28T11:19:26;21.65;;;14.93;;
57025;SDS011;43961;52.940;6.834;2022-10-28T11:30:03;37.30;;;14.65;;
57025;SDS011;43961;52.940;6.834;2022-10-28T11:37:56;25.98;;;13.95;;
57025;SDS011;43961;52.940;6.834;2022-10-28T11:45:32;35.42;;;13.85;;
57025;SDS011;43961;52.940;6.834;2022-10-28T11:53:25;21.80;;;11.93;;
57025;SDS011;43961;52.940;6.834;2022-10-28T12:15:58;39.40;;;14.45;;
57025;SDS011;43961;52.940;6.834;2022-10-28T12:21:35;24.08;;;12.82;;
57025;SDS011;43961;52.940;6.834;2022-10-28T12:24:13;36.13;;;14.30;;
57025;SDS011;43961;52.940;6.834;2022-10-28T12:26:46;32.45;;;13.23;;
57025;SDS011;43961;52.940;6.834;2022-10-28T12:32:21;23.63;;;11.20;;
57025;SDS011;43961;52.940;6.834;2022-10-28T12:37:51;37.58;;;14.95;;
57025;SDS011;43961;52.940;6.834;2022-10-28T12:40:24;28.50;;;13.15;;
57025;SDS011;43961;52.940;6.834;2022-10-28T12:42:57;28.83;;;13.30;;
57025;SDS011;43961;52.940;6.834;2022-10-28T12:45:28;33.67;;;13.88;;
57025;SDS011;43961;52.940;6.834;2022-10-28T12:53:45;31.38;;;13.40;;
57025;SDS011;43961;52.940;6.834;2022-10-28T12:56:21;32.38;;;12.27;;
57025;SDS011;43961;52.940;6.834;2022-10-28T12:58:56;25.65;;;10.63;;
57025;SDS011;43961;52.940;6.834;2022-10-28T13:01:29;34.22;;;14.15;;
57025;SDS011;43961;52.940;6.834;2022-10-28T13:03:57;36.47;;;13.50;;
57025;SDS011;43961;52.940;6.834;2022-10-28T13:06:40;24.65;;;12.63;;
57025;SDS011;43961;52.940;6.834;2022-10-28T13:20:38;37.20;;;12.52;;
57025;SDS011;43961;52.940;6.834;2022-10-28T13:26:47;36.50;;;15.70;;
57025;SDS011;43961;52.940;6.834;2022-10-28T13:28:58;26.23;;;12.75;;
57025;SDS011;43961;52.940;6.834;2022-10-28T13:31:40;41.45;;;14.20;;
57025;SDS011;43961;52.940;6.834;2022-10-28T13:34:08;34.67;;;13.82;;
57025;SDS011;43961;52.940;6.834;2022-10-28T13:36:44;28.65;;;12.70;;
57025;SDS011;43961;52.940;6.834;2022-10-28T13:54:56;31.10;;;12.35;;
57025;SDS011;43961;52.940;6.834;2022-10-28T13:57:31;46.22;;;13.23;;
57025;SDS011;43961;52.940;6.834;2022-10-28T14:00:00;33.08;;;14.18;;
57025;SDS011;43961;52.940;6.834;2022-10-28T14:02:38;33.13;;;14.02;;
57025;SDS011;43961;52.940;6.834;2022-10-28T14:05:10;28.60;;;14.20;;
57025;SDS011;43961;52.940;6.834;2022-10-28T14:08:02;35.40;;;12.75;;
57025;SDS011;43961;52.940;6.834;2022-10-28T14:10:37;46.33;;;14.25;;
57025;SDS011;43961;52.940;6.834;2022-10-28T14:13:05;31.75;;;12.90;;
57025;SDS011;43961;52.940;6.834;2022-10-28T14:15:44;27.85;;;12.73;;
57025;SDS011;43961;52.940;6.834;2022-10-28T14:38:46;37.53;;;15.52;;
57025;SDS011;43961;52.940;6.834;2022-10-28T14:44:07;38.13;;;13.65;;
57025;SDS011;43961;52.940;6.834;2022-10-28T14:49:58;24.58;;;13.25;;
57025;SDS011;43961;52.940;6.834;2022-10-28T14:52:45;20.20;;;13.13;;
57025;SDS011;43961;52.940;6.834;2022-10-28T14:57:52;22.42;;;12.27;;
57025;SDS011;43961;52.940;6.834;2022-10-28T15:00:19;25.92;;;13.57;;
57025;SDS011;43961;52.940;6.834;2022-10-28T15:02:47;36.15;;;14.18;;
57025;SDS011;43961;52.940;6.834;2022-10-28T15:05:14;31.90;;;13.18;;
57025;SDS011;43961;52.940;6.834;2022-10-28T15:07:45;29.05;;;11.05;;
57025;SDS011;43961;52.940;6.834;2022-10-28T15:10:16;33.92;;;13.15;;
57025;SDS011;43961;52.940;6.834;2022-10-28T15:15:25;26.27;;;11.70;;
57025;SDS011;43961;52.940;6.834;2022-10-28T15:17:55;29.02;;;11.85;;
57025;SDS011;43961;52.940;6.834;2022-10-28T15:20:32;25.30;;;12.60;;
57025;SDS011;43961;52.940;6.834;2022-10-28T15:23:16;45.72;;;11.88;;
57025;SDS011;43961;52.940;6.834;2022-10-28T15:26:08;24.77;;;13.77;;
57025;SDS011;43961;52.940;6.834;2022-10-28T15:28:38;28.77;;;12.88;;
57025;SDS011;43961;52.940;6.834;2022-10-28T15:31:05;43.70;;;14.20;;
57025;SDS011;43961;52.940;6.834;2022-10-28T15:33:31;33.50;;;12.73;;
57025;SDS011;43961;52.940;6.834;2022-10-28T15:36:21;28.00;;;13.27;;
57025;SDS011;43961;52.940;6.834;2022-10-28T15:38:49;30.83;;;13.52;;
57025;SDS011;43961;52.940;6.834;2022-10-28T15:43:53;32.47;;;13.23;;
57025;SDS011;43961;52.940;6.834;2022-10-28T15:46:26;26.85;;;11.52;;
57025;SDS011;43961;52.940;6.834;2022-10-28T15:48:54;43.23;;;13.80;;
57025;SDS011;43961;52.940;6.834;2022-10-28T15:51:22;28.88;;;13.40;;
57025;SDS011;43961;52.940;6.834;2022-10-28T15:53:51;32.35;;;14.20;;
57025;SDS011;43961;52.940;6.834;2022-10-28T15:56:59;35.33;;;14.93;;
57025;SDS011;43961;52.940;6.834;2022-10-28T15:59:24;25.87;;;12.87;;
57025;SDS011;43961;52.940;6.834;2022-10-28T16:01:50;27.42;;;12.80;;
57025;SDS011;43961;52.940;6.834;2022-10-28T16:06:50;37.95;;;13.15;;
57025;SDS011;43961;52.940;6.834;2022-10-28T16:09:18;29.02;;;13.10;;
57025;SDS011;43961;52.940;6.834;2022-10-28T16:11:59;26.80;;;12.68;;
57025;SDS011;43961;52.940;6.834;2022-10-28T16:14:35;25.77;;;12.88;;
57025;SDS011;43961;52.940;6.834;2022-10-28T16:17:10;34.28;;;14.40;;
57025;SDS011;43961;52.940;6.834;2022-10-28T16:19:58;33.95;;;13.27;;
57025;SDS011;43961;52.940;6.834;2022-10-28T16:22:26;24.42;;;13.13;;
57025;SDS011;43961;52.940;6.834;2022-10-28T16:27:23;35.03;;;13.85;;
57025;SDS011;43961;52.940;6.834;2022-10-28T16:29:49;28.05;;;12.80;;
57025;SDS011;43961;52.940;6.834;2022-10-28T16:32:17;28.08;;;14.50;;
57025;SDS011;43961;52.940;6.834;2022-10-28T16:34:48;42.35;;;16.23;;
57025;SDS011;43961;52.940;6.834;2022-10-28T16:37:19;31.63;;;13.90;;
57025;SDS011;43961;52.940;6.834;2022-10-28T16:39:50;30.02;;;14.88;;
57025;SDS011;43961;52.940;6.834;2022-10-28T16:42:16;36.80;;;15.55;;
57025;SDS011;43961;52.940;6.834;2022-10-28T16:44:43;35.37;;;14.47;;
57025;SDS011;43961;52.940;6.834;2022-10-28T16:47:12;30.65;;;14.52;;
57025;SDS011;43961;52.940;6.834;2022-10-28T16:49:50;30.50;;;14.77;;
57025;SDS011;43961;52.940;6.834;2022-10-28T16:52:17;29.45;;;14.48;;
57025;SDS011;43961;52.940;6.834;2022-10-28T16:54:47;41.53;;;13.65;;
57025;SDS011;43961;52.940;6.834;2022-10-28T16:57:15;31.50;;;13.80;;
57025;SDS011;43961;52.940;6.834;2022-10-28T16:59:44;35.67;;;14.77;;
57025;SDS011;43961;52.940;6.834;2022-10-28T17:02:14;32.53;;;14.13;;
57025;SDS011;43961;52.940;6.834;2022-10-28T17:04:49;23.20;;;13.77;;
57025;SDS011;43961;52.940;6.834;2022-10-28T17:07:15;42.10;;;14.80;;
57025;SDS011;43961;52.940;6.834;2022-10-28T17:09:42;35.63;;;14.95;;
57025;SDS011;43961;52.940;6.834;2022-10-28T17:12:18;40.38;;;15.55;;
57025;SDS011;43961;52.940;6.834;2022-10-28T17:14:45;37.28;;;14.70;;
57025;SDS011;43961;52.940;6.834;2022-10-28T17:17:11;31.30;;;15.18;;
57025;SDS011;43961;52.940;6.834;2022-10-28T17:19:37;27.70;;;14.18;;
57025;SDS011;43961;52.940;6.834;2022-10-28T17:22:03;34.10;;;15.90;;
57025;SDS011;43961;52.940;6.834;2022-10-28T17:24:30;42.75;;;16.10;;
57025;SDS011;43961;52.940;6.834;2022-10-28T17:26:55;24.00;;;13.57;;
57025;SDS011;43961;52.940;6.834;2022-10-28T17:29:21;45.58;;;15.55;;
57025;SDS011;43961;52.940;6.834;2022-10-28T17:31:46;27.52;;;15.15;;
57025;SDS011;43961;52.940;6.834;2022-10-28T17:34:12;28.38;;;14.48;;
57025;SDS011;43961;52.940;6.834;2022-10-28T17:36:39;30.60;;;14.38;;
57025;SDS011;43961;52.940;6.834;2022-10-28T17:39:04;30.88;;;14.57;;
57025;SDS011;43961;52.940;6.834;2022-10-28T17:41:30;40.00;;;14.55;;
57025;SDS011;43961;52.940;6.834;2022-10-28T17:43:56;36.22;;;15.68;;
57025;SDS011;43961;52.940;6.834;2022-10-28T17:46:21;35.85;;;14.68;;
57025;SDS011;43961;52.940;6.834;2022-10-28T17:48:47;32.15;;;14.50;;
57025;SDS011;43961;52.940;6.834;2022-10-28T17:51:13;37.70;;;14.77;;
57025;SDS011;43961;52.940;6.834;2022-10-28T17:53:39;34.88;;;13.93;;
57025;SDS011;43961;52.940;6.834;2022-10-28T17:56:05;33.97;;;15.73;;
57025;SDS011;43961;52.940;6.834;2022-10-28T17:58:31;29.13;;;14.65;;
57025;SDS011;43961;52.940;6.834;2022-10-28T18:00:58;36.60;;;15.27;;
57025;SDS011;43961;52.940;6.834;2022-10-28T18:03:28;32.95;;;15.18;;
57025;SDS011;43961;52.940;6.834;2022-10-28T18:05:54;31.85;;;15.35;;
57025;SDS011;43961;52.940;6.834;2022-10-28T18:08:20;40.30;;;16.35;;